Time;durP1;ratioP1;P1;durP2;ratioP2;P2;SDS_P1;SDS_P2;PMS_P1;PMS_P2;Temp;Humidity;BMP_temperature;BMP_pressure;BME280_temperature;BME280_humidity;BME280_pressure;Samples;Min_cycle;Max_cycle;Signal;HPM_P1;HPM_P2
2021/12/09 00:00:58;;;;;;;5.33;4.27;;;9.80;63.90;;;;;;4963948;28;21056;-53
2021/12/09 00:03:24;;;;;;;7.33;4.57;;;9.90;63.80;;;;;;4962645;28;20454;-55
2021/12/09 00:05:49;;;;;;;7.97;5.70;;;9.90;63.80;;;;;;4966188;28;20455;-53
2021/12/09 00:08:15;;;;;;;7.60;6.17;;;10.00;62.50;;;;;;4967976;28;20203;-51
2021/12/09 00:10:42;;;;;;;8.80;5.73;;;10.00;62.30;;;;;;4962278;28;20196;-52
2021/12/09 00:13:08;;;;;;;6.83;6.10;;;10.00;62.50;;;;;;4963370;28;20195;-54
2021/12/09 00:15:34;;;;;;;8.47;5.70;;;10.10;62.40;;;;;;4961919;28;20457;-53
2021/12/09 00:18:00;;;;;;;10.07;6.37;;;10.10;62.30;;;;;;4970917;28;20603;-53
2021/12/09 00:20:26;;;;;;;9.57;6.60;;;10.10;62.30;;;;;;4964792;28;20949;-51
2021/12/09 00:22:52;;;;;;;10.53;7.40;;;10.20;62.40;;;;;;4963363;28;20451;-53
2021/12/09 00:25:17;;;;;;;9.67;6.80;;;10.20;62.30;;;;;;4964186;28;20195;-51
2021/12/09 00:27:43;;;;;;;9.00;7.27;;;10.20;62.20;;;;;;4970927;28;20199;-51
2021/12/09 00:30:12;;;;;;;8.83;6.60;;;10.20;62.30;;;;;;4962660;28;20253;-55
2021/12/09 00:32:41;;;;;;;12.40;8.47;;;10.10;61.70;;;;;;4963372;28;20199;-51
2021/12/09 00:35:10;;;;;;;8.33;7.30;;;10.10;62.10;;;;;;4961830;28;20923;-54
2021/12/09 00:37:40;;;;;;;10.47;7.63;;;10.20;62.20;;;;;;4964901;28;20586;-54
2021/12/09 00:40:08;;;;;;;11.40;7.87;;;10.20;62.10;;;;;;4955391;28;20486;-51
2021/12/09 00:42:34;;;;;;;8.40;7.30;;;10.20;62.30;;;;;;4965565;28;20518;-54
2021/12/09 00:45:00;;;;;;;9.90;7.80;;;10.20;62.60;;;;;;4963585;28;20553;-51
2021/12/09 00:47:26;;;;;;;7.53;6.47;;;10.20;62.50;;;;;;4965598;28;22697;-51
2021/12/09 00:49:55;;;;;;;9.80;6.20;;;10.20;62.50;;;;;;4963949;28;20458;-55
2021/12/09 00:52:24;;;;;;;10.37;6.90;;;10.20;62.60;;;;;;4963648;28;20450;-55
2021/12/09 00:54:54;;;;;;;7.97;7.00;;;10.20;62.70;;;;;;4966296;28;20528;-53
2021/12/09 00:57:20;;;;;;;11.50;8.10;;;10.20;63.00;;;;;;4963424;28;20494;-54
2021/12/09 00:59:48;;;;;;;7.73;6.17;;;10.20;63.20;;;;;;4961058;28;20870;-54
2021/12/09 01:02:14;;;;;;;8.87;6.70;;;10.20;63.30;;;;;;4964288;28;20520;-53
2021/12/09 01:04:41;;;;;;;6.83;5.67;;;10.20;63.50;;;;;;4961637;28;20877;-55
2021/12/09 01:07:06;;;;;;;6.10;5.10;;;10.20;63.30;;;;;;4962482;28;20227;-55
2021/12/09 01:09:33;;;;;;;7.27;6.03;;;10.20;63.20;;;;;;4963073;28;20538;-53
2021/12/09 01:11:58;;;;;;;11.83;5.20;;;10.20;63.30;;;;;;4963348;28;20217;-55
2021/12/09 01:14:25;;;;;;;5.50;5.00;;;10.20;63.40;;;;;;4964360;28;20449;-52
2021/12/09 01:16:51;;;;;;;8.37;5.17;;;10.20;63.60;;;;;;4963132;28;20675;-53
2021/12/09 01:19:17;;;;;;;6.83;5.20;;;10.20;63.40;;;;;;4962942;28;20435;-54
2021/12/09 01:21:43;;;;;;;7.73;4.90;;;10.20;63.30;;;;;;4962692;28;20818;-55
2021/12/09 01:24:09;;;;;;;5.47;4.47;;;10.20;63.30;;;;;;4962389;28;20534;-54
2021/12/09 01:26:35;;;;;;;7.63;3.70;;;10.20;63.10;;;;;;4967839;28;20227;-55
2021/12/09 01:29:08;;;;;;;4.53;2.93;;;10.20;64.00;;;;;;4964180;28;20958;-53
2021/12/09 01:31:37;;;;;;;5.67;2.77;;;10.10;62.70;;;;;;4963676;28;20442;-54
2021/12/09 01:34:04;;;;;;;5.10;2.70;;;10.10;62.30;;;;;;4964945;28;20489;-55
2021/12/09 01:36:32;;;;;;;5.53;4.17;;;10.10;62.00;;;;;;4961400;28;20456;-55
2021/12/09 01:38:58;;;;;;;4.77;3.07;;;10.20;61.80;;;;;;4962854;28;20456;-54
2021/12/09 01:41:23;;;;;;;5.50;2.80;;;10.20;61.70;;;;;;4961094;28;20450;-55
2021/12/09 01:43:50;;;;;;;3.40;2.83;;;10.20;61.40;;;;;;4962092;28;21336;-53
2021/12/09 01:46:20;;;;;;;4.10;2.70;;;10.20;61.20;;;;;;4963052;28;20196;-55
2021/12/09 01:48:47;;;;;;;5.90;2.90;;;10.20;61.40;;;;;;4965737;28;20824;-54
2021/12/09 01:51:13;;;;;;;5.63;3.10;;;10.30;61.60;;;;;;4955500;28;20455;-55
2021/12/09 01:53:40;;;;;;;5.17;2.90;;;10.30;61.50;;;;;;4958335;28;21741;-55
2021/12/09 01:56:21;;;;;;;6.40;3.10;;;10.30;61.60;;;;;;4964859;28;20446;-54
2021/12/09 01:58:48;;;;;;;4.00;3.00;;;10.20;61.80;;;;;;4963854;28;20489;-54
2021/12/09 02:01:14;;;;;;;5.03;3.00;;;10.30;61.80;;;;;;4960994;28;20518;-53
2021/12/09 02:03:40;;;;;;;4.47;3.20;;;10.20;61.50;;;;;;4955334;28;20530;-55
2021/12/09 02:06:05;;;;;;;3.47;2.73;;;10.20;61.50;;;;;;4961911;28;20203;-55
2021/12/09 02:08:31;;;;;;;4.93;2.73;;;10.20;61.50;;;;;;4962887;28;21846;-55
2021/12/09 02:10:57;;;;;;;4.17;2.80;;;10.30;61.60;;;;;;4964408;28;20214;-55
2021/12/09 02:13:23;;;;;;;3.87;2.93;;;10.30;61.40;;;;;;4966357;28;20187;-55
2021/12/09 02:15:52;;;;;;;3.20;2.87;;;10.30;61.40;;;;;;4959732;28;20208;-55
2021/12/09 02:18:18;;;;;;;5.73;3.40;;;10.30;61.20;;;;;;4963219;28;20594;-54
2021/12/09 02:20:44;;;;;;;6.50;4.10;;;10.40;61.20;;;;;;4959847;28;20509;-55
2021/12/09 02:23:12;;;;;;;4.43;2.87;;;10.40;60.80;;;;;;4967808;28;20818;-54
2021/12/09 02:25:44;;;;;;;4.10;2.73;;;10.40;60.80;;;;;;4963349;28;20450;-54
2021/12/09 02:28:19;;;;;;;5.13;2.90;;;10.40;61.00;;;;;;4964118;28;20454;-53
2021/12/09 02:30:45;;;;;;;4.30;3.73;;;10.20;60.80;;;;;;4967184;28;20495;-54
2021/12/09 02:33:11;;;;;;;5.37;2.80;;;10.20;61.20;;;;;;4964741;28;20525;-54
2021/12/09 02:35:38;;;;;;;4.63;3.17;;;10.10;61.30;;;;;;4966692;28;20198;-51
2021/12/09 02:38:04;;;;;;;4.33;3.37;;;10.10;61.40;;;;;;4965849;28;20223;-54
2021/12/09 02:40:33;;;;;;;5.93;3.30;;;10.10;61.70;;;;;;4969527;28;20777;-55
2021/12/09 02:42:59;;;;;;;7.40;3.20;;;10.00;61.70;;;;;;4966275;28;20473;-53
2021/12/09 02:45:25;;;;;;;5.13;4.10;;;10.10;61.60;;;;;;4966031;28;20919;-55
2021/12/09 02:47:50;;;;;;;7.70;3.60;;;10.10;61.70;;;;;;4964807;28;20421;-54
2021/12/09 02:50:16;;;;;;;4.33;3.00;;;10.10;62.20;;;;;;4962013;28;20196;-55
2021/12/09 02:52:41;;;;;;;6.50;3.93;;;10.10;62.20;;;;;;4961231;28;20250;-54
2021/12/09 02:55:08;;;;;;;5.73;4.20;;;10.10;62.50;;;;;;4958738;28;20238;-55
2021/12/09 02:57:33;;;;;;;9.73;4.03;;;10.10;62.60;;;;;;4964612;28;20223;-52
2021/12/09 02:59:59;;;;;;;6.33;3.87;;;10.10;62.80;;;;;;4961481;28;20454;-54
2021/12/09 03:02:25;;;;;;;3.90;3.50;;;10.00;63.10;;;;;;4968860;28;20560;-52
2021/12/09 03:04:54;;;;;;;8.03;3.93;;;9.80;64.80;;;;;;4967186;28;20202;-52
2021/12/09 03:07:28;;;;;;;6.13;4.23;;;9.60;65.40;;;;;;4965277;28;20200;-52
2021/12/09 03:09:59;;;;;;;8.10;4.93;;;9.50;66.00;;;;;;4968319;28;20446;-54
2021/12/09 03:12:32;;;;;;;6.30;3.53;;;9.50;65.90;;;;;;4965829;28;20534;-51
2021/12/09 03:14:58;;;;;;;9.07;3.87;;;9.50;65.80;;;;;;4961008;28;21300;-53
2021/12/09 03:17:24;;;;;;;7.03;4.43;;;9.40;65.60;;;;;;4967853;28;20618;-53
2021/12/09 03:19:50;;;;;;;13.40;4.27;;;9.40;65.80;;;;;;4964084;28;20799;-55
2021/12/09 03:22:16;;;;;;;10.30;3.83;;;9.40;66.00;;;;;;4971227;28;20925;-53
2021/12/09 03:24:42;;;;;;;10.77;4.10;;;9.50;65.70;;;;;;4971189;28;20565;-54
2021/12/09 03:27:08;;;;;;;9.80;5.00;;;9.50;65.50;;;;;;4971157;28;20222;-54
2021/12/09 03:29:34;;;;;;;8.40;4.17;;;9.50;65.40;;;;;;4962306;28;20231;-50
2021/12/09 03:32:06;;;;;;;7.00;4.67;;;9.50;65.80;;;;;;4962941;28;20452;-52
2021/12/09 03:34:34;;;;;;;9.03;4.90;;;9.50;65.60;;;;;;4960121;28;20809;-51
2021/12/09 03:37:04;;;;;;;10.33;5.30;;;9.50;65.90;;;;;;4970668;28;20466;-54
2021/12/09 03:39:34;;;;;;;7.43;4.33;;;9.60;65.80;;;;;;4959849;28;20545;-54
2021/12/09 03:42:00;;;;;;;9.80;5.73;;;9.70;65.30;;;;;;4965228;28;20562;-54
2021/12/09 03:44:28;;;;;;;9.17;4.77;;;9.70;65.30;;;;;;4960733;28;20437;-51
2021/12/09 03:46:56;;;;;;;6.20;4.10;;;9.70;65.10;;;;;;4967307;28;20542;-54
2021/12/09 03:49:24;;;;;;;9.77;4.43;;;9.70;65.00;;;;;;4958380;28;20448;-54
2021/12/09 03:51:50;;;;;;;7.60;4.70;;;9.60;64.90;;;;;;4970660;28;20450;-54
2021/12/09 03:54:16;;;;;;;11.97;4.60;;;9.70;64.80;;;;;;4969111;28;20510;-52
2021/12/09 03:56:42;;;;;;;6.90;4.73;;;9.80;64.70;;;;;;4973369;28;20915;-51
2021/12/09 03:59:09;;;;;;;4.93;4.00;;;9.70;64.50;;;;;;4967512;28;20251;-55
2021/12/09 04:01:37;;;;;;;7.80;4.97;;;9.70;64.30;;;;;;4964571;28;20615;-53
2021/12/09 04:04:03;;;;;;;9.17;3.83;;;9.60;64.30;;;;;;4962980;28;20451;-51
2021/12/09 04:06:29;;;;;;;10.77;4.70;;;9.50;64.70;;;;;;4960001;28;20450;-51
2021/12/09 04:08:55;;;;;;;7.17;4.00;;;9.40;65.30;;;;;;4963406;28;20455;-51
2021/12/09 04:11:22;;;;;;;11.80;4.40;;;9.20;65.30;;;;;;4962353;28;20455;-54
2021/12/09 04:13:47;;;;;;;5.40;3.60;;;9.10;65.90;;;;;;4963798;28;20452;-51
2021/12/09 04:16:13;;;;;;;6.73;4.13;;;9.10;65.80;;;;;;4961777;28;20459;-51
2021/12/09 04:18:41;;;;;;;8.07;4.40;;;9.20;65.50;;;;;;4966235;28;20239;-52
2021/12/09 04:21:07;;;;;;;4.63;3.77;;;9.30;65.60;;;;;;4963078;28;20989;-52
2021/12/09 04:23:33;;;;;;;11.10;4.77;;;9.30;65.40;;;;;;4962741;28;20494;-51
2021/12/09 04:25:59;;;;;;;9.13;4.17;;;9.40;65.00;;;;;;4963256;28;20196;-52
2021/12/09 04:28:25;;;;;;;6.03;4.00;;;9.40;64.60;;;;;;4965230;28;20438;-53
2021/12/09 04:30:51;;;;;;;6.13;4.20;;;9.40;64.80;;;;;;4963757;28;20518;-54
2021/12/09 04:33:17;;;;;;;11.30;4.70;;;9.50;64.70;;;;;;4965012;28;20525;-51
2021/12/09 04:35:43;;;;;;;11.47;4.57;;;9.50;64.50;;;;;;4965717;28;20494;-51
2021/12/09 04:38:09;;;;;;;6.27;4.20;;;9.60;64.60;;;;;;4966109;28;20231;-53
2021/12/09 04:40:34;;;;;;;7.60;4.37;;;9.60;64.10;;;;;;4959657;28;20947;-50
2021/12/09 04:43:01;;;;;;;7.33;4.47;;;9.60;63.90;;;;;;4965053;28;20202;-51
2021/12/09 04:45:28;;;;;;;11.37;4.60;;;9.60;64.40;;;;;;4963363;28;20504;-52
2021/12/09 04:47:54;;;;;;;11.10;4.30;;;9.70;63.90;;;;;;4962368;28;20446;-52
2021/12/09 04:50:20;;;;;;;8.27;4.73;;;9.80;63.50;;;;;;4966182;28;20446;-51
2021/12/09 04:52:45;;;;;;;6.30;4.87;;;9.90;63.20;;;;;;4965122;28;20203;-51
2021/12/09 04:55:11;;;;;;;6.83;4.00;;;9.90;62.80;;;;;;4962844;28;20646;-54
2021/12/09 04:57:42;;;;;;;11.23;4.63;;;9.90;62.80;;;;;;4963154;28;20278;-51
2021/12/09 05:00:14;;;;;;;5.77;3.93;;;10.00;61.30;;;;;;4966903;28;20449;-52
2021/12/09 05:05:39;;;;;;;6.57;4.67;;;9.80;62.80;;;;;;4955356;28;20805;-55
2021/12/09 05:08:10;;;;;;;14.80;4.63;;;9.80;62.90;;;;;;4964266;28;20446;-51
2021/12/09 05:10:53;;;;;;;8.23;4.50;;;9.80;62.90;;;;;;4960137;28;20435;-51
2021/12/09 05:13:19;;;;;;;12.37;4.40;;;9.80;62.60;;;;;;4964724;28;20792;-51
2021/12/09 05:15:46;;;;;;;11.00;4.17;;;9.90;62.70;;;;;;4963105;28;20919;-53
2021/12/09 05:18:13;;;;;;;5.83;4.43;;;9.90;62.80;;;;;;4967090;28;20490;-54
2021/12/09 05:20:39;;;;;;;7.90;4.07;;;9.90;62.50;;;;;;4959924;28;20438;-53
2021/12/09 05:23:05;;;;;;;13.33;4.83;;;9.90;62.50;;;;;;4971875;28;20434;-51
2021/12/09 05:25:31;;;;;;;7.80;4.37;;;9.90;62.70;;;;;;4964232;28;20469;-51
2021/12/09 05:27:57;;;;;;;7.13;3.77;;;9.90;62.50;;;;;;4969925;28;20188;-53
2021/12/09 05:30:37;;;;;;;9.13;4.00;;;9.90;62.50;;;;;;4968794;28;20457;-53
2021/12/09 05:33:03;;;;;;;9.80;4.97;;;9.80;63.40;;;;;;4958534;28;20210;-51
2021/12/09 05:35:29;;;;;;;7.50;4.30;;;9.80;62.70;;;;;;4961451;28;20438;-54
2021/12/09 05:37:54;;;;;;;5.70;4.30;;;9.90;62.70;;;;;;4966433;28;20234;-51
2021/12/09 05:40:21;;;;;;;15.83;3.93;;;9.90;62.20;;;;;;4966575;28;20188;-52
2021/12/09 05:42:47;;;;;;;8.63;3.70;;;10.00;60.80;;;;;;4971849;28;20202;-52
2021/12/09 05:45:13;;;;;;;6.43;3.33;;;10.00;60.40;;;;;;4969983;28;20430;-53
2021/12/09 05:47:38;;;;;;;8.53;3.27;;;10.10;60.20;;;;;;4962956;28;20202;-53
2021/12/09 05:50:05;;;;;;;5.53;4.07;;;10.10;59.90;;;;;;4971265;28;20194;-50
2021/12/09 05:52:31;;;;;;;5.23;3.70;;;10.10;60.00;;;;;;4963168;28;20183;-50
2021/12/09 05:54:56;;;;;;;9.63;4.70;;;10.10;60.20;;;;;;4964209;28;20467;-51
2021/12/09 05:57:22;;;;;;;9.50;4.10;;;10.10;60.30;;;;;;4967894;28;20598;-55
2021/12/09 05:59:48;;;;;;;6.63;4.00;;;10.10;60.50;;;;;;4972032;28;20199;-51
2021/12/09 06:02:17;;;;;;;10.43;3.63;;;10.10;60.40;;;;;;4965575;28;20199;-52
2021/12/09 06:04:43;;;;;;;10.47;4.33;;;10.10;60.60;;;;;;4971180;28;20265;-51
2021/12/09 06:07:09;;;;;;;7.90;4.23;;;10.10;60.70;;;;;;4960838;28;20435;-50
2021/12/09 06:09:35;;;;;;;6.30;3.77;;;10.10;60.80;;;;;;4974485;28;20469;-50
2021/12/09 06:12:01;;;;;;;9.87;4.77;;;10.10;60.80;;;;;;4967852;28;20926;-53
2021/12/09 06:14:27;;;;;;;11.50;4.40;;;10.00;61.00;;;;;;4967585;28;20191;-52
2021/12/09 06:16:52;;;;;;;11.43;3.20;;;10.10;60.80;;;;;;4967171;28;20195;-51
2021/12/09 06:19:18;;;;;;;14.57;4.30;;;10.10;60.70;;;;;;4969397;28;20568;-51
2021/12/09 06:21:44;;;;;;;7.00;3.63;;;10.20;61.00;;;;;;4968764;28;20203;-51
2021/12/09 06:24:09;;;;;;;6.43;3.03;;;10.30;61.00;;;;;;4968221;28;20191;-53
2021/12/09 06:26:35;;;;;;;5.43;2.60;;;10.40;60.40;;;;;;4963179;28;20208;-52
2021/12/09 06:29:01;;;;;;;4.30;2.80;;;10.40;59.80;;;;;;4964077;28;20215;-52
2021/12/09 06:31:27;;;;;;;3.30;2.40;;;10.40;59.10;;;;;;4961695;28;20205;-53
2021/12/09 06:33:53;;;;;;;9.90;3.03;;;10.50;59.20;;;;;;4964410;28;20565;-51
2021/12/09 06:36:20;;;;;;;10.43;3.40;;;10.50;58.70;;;;;;4968177;28;20505;-51
2021/12/09 06:38:46;;;;;;;5.77;3.23;;;10.60;58.60;;;;;;4966306;28;20342;-54
2021/12/09 06:41:12;;;;;;;5.53;3.40;;;10.70;58.20;;;;;;4964374;28;20486;-51
2021/12/09 06:43:40;;;;;;;4.80;3.17;;;10.70;57.70;;;;;;4963496;28;20537;-52
2021/12/09 06:46:07;;;;;;;5.50;3.10;;;10.60;57.70;;;;;;4964791;28;20203;-53
2021/12/09 06:48:34;;;;;;;9.50;3.17;;;10.60;57.80;;;;;;4967369;28;20442;-51
2021/12/09 06:51:02;;;;;;;4.93;3.00;;;10.80;58.10;;;;;;4964357;28;20454;-50
2021/12/09 06:53:29;;;;;;;6.37;3.63;;;10.90;57.90;;;;;;4966023;28;20443;-51
2021/12/09 06:55:55;;;;;;;6.50;3.73;;;11.00;57.50;;;;;;4964805;28;20468;-51
2021/12/09 06:58:22;;;;;;;7.23;3.60;;;11.00;57.30;;;;;;4959992;28;22122;-50
2021/12/09 07:00:48;;;;;;;7.40;3.63;;;10.90;57.20;;;;;;4962003;28;20450;-50
2021/12/09 07:03:16;;;;;;;9.90;3.23;;;11.00;57.50;;;;;;4967656;28;20446;-51
2021/12/09 07:05:44;;;;;;;8.60;6.83;;;11.00;57.30;;;;;;4963080;28;20458;-50
2021/12/09 07:08:11;;;;;;;8.20;6.13;;;11.10;57.00;;;;;;4968371;28;20869;-50
2021/12/09 07:10:37;;;;;;;7.20;6.50;;;11.30;56.80;;;;;;4962294;28;20533;-51
2021/12/09 07:13:05;;;;;;;7.63;6.77;;;11.30;56.50;;;;;;4967858;28;20427;-50
2021/12/09 07:15:31;;;;;;;8.90;6.60;;;11.40;56.30;;;;;;4961124;28;22093;-51
2021/12/09 07:17:56;;;;;;;8.53;4.53;;;11.40;56.30;;;;;;4963502;28;20565;-52
2021/12/09 07:20:23;;;;;;;8.70;3.63;;;11.50;55.80;;;;;;4964242;28;20791;-50
2021/12/09 07:22:49;;;;;;;4.30;2.83;;;11.40;55.40;;;;;;4971230;28;20350;-50
2021/12/09 07:25:16;;;;;;;8.40;3.40;;;11.40;55.50;;;;;;4963245;28;20455;-53
2021/12/09 07:27:42;;;;;;;5.30;3.50;;;11.30;55.50;;;;;;4963238;28;20452;-50
2021/12/09 07:30:10;;;;;;;10.80;8.13;;;11.20;55.70;;;;;;4961767;28;20443;-51
2021/12/09 07:32:36;;;;;;;9.40;6.93;;;11.00;55.80;;;;;;4966750;28;20192;-50
2021/12/09 07:35:02;;;;;;;6.97;5.00;;;10.90;56.10;;;;;;4967759;28;20931;-50
2021/12/09 07:37:28;;;;;;;4.77;4.37;;;10.80;56.40;;;;;;4964350;28;20565;-49
2021/12/09 07:39:54;;;;;;;6.93;5.10;;;10.70;56.70;;;;;;4964419;28;21343;-52
2021/12/09 07:42:19;;;;;;;5.13;4.47;;;10.60;56.90;;;;;;4966430;28;20196;-50
2021/12/09 07:44:45;;;;;;;5.63;3.70;;;10.50;57.10;;;;;;4967202;28;20223;-50
2021/12/09 07:47:11;;;;;;;6.70;4.17;;;10.50;57.50;;;;;;4968484;28;20198;-50
2021/12/09 07:49:37;;;;;;;6.13;4.20;;;10.40;57.90;;;;;;4961544;28;20877;-52
2021/12/09 07:52:04;;;;;;;9.23;4.60;;;10.30;58.50;;;;;;4973788;28;20435;-51
2021/12/09 07:54:31;;;;;;;6.73;3.90;;;10.30;58.60;;;;;;4971887;28;21399;-50
2021/12/09 07:56:57;;;;;;;9.20;5.30;;;10.30;58.70;;;;;;4973799;28;20562;-50
2021/12/09 07:59:23;;;;;;;14.00;4.93;;;10.30;58.80;;;;;;4973504;28;20521;-50
2021/12/09 08:01:49;;;;;;;9.50;3.83;;;10.30;58.90;;;;;;4973912;28;20195;-50
2021/12/09 08:04:15;;;;;;;12.10;5.13;;;10.30;58.80;;;;;;4972786;28;21001;-54
2021/12/09 08:06:41;;;;;;;13.53;6.70;;;10.30;58.70;;;;;;4973573;28;20199;-54
2021/12/09 08:09:08;;;;;;;12.67;6.40;;;10.30;58.70;;;;;;4955238;28;20430;-52
2021/12/09 08:11:38;;;;;;;12.80;6.53;;;10.30;58.70;;;;;;4954220;28;20822;-50
2021/12/09 08:14:10;;;;;;;11.80;7.40;;;10.30;58.60;;;;;;4963050;28;20466;-51
2021/12/09 08:16:38;;;;;;;7.93;5.23;;;10.30;58.70;;;;;;4973338;28;20887;-50
2021/12/09 08:19:08;;;;;;;8.63;3.87;;;10.30;58.90;;;;;;4973659;28;20478;-50
2021/12/09 08:21:36;;;;;;;7.97;4.13;;;10.30;59.10;;;;;;4971575;28;20438;-51
2021/12/09 08:24:07;;;;;;;7.13;5.13;;;10.30;59.30;;;;;;4971673;28;20454;-52
2021/12/09 08:26:34;;;;;;;5.37;3.80;;;10.20;59.80;;;;;;4973246;28;20497;-50
2021/12/09 08:29:00;;;;;;;13.10;4.83;;;10.30;59.80;;;;;;4973610;28;20422;-52
2021/12/09 08:31:32;;;;;;;9.17;4.27;;;10.30;59.60;;;;;;4972865;28;20485;-51
2021/12/09 08:33:58;;;;;;;7.03;4.80;;;10.30;59.50;;;;;;4973185;28;20441;-53
2021/12/09 08:36:24;;;;;;;9.30;4.30;;;10.30;59.70;;;;;;4972003;28;20978;-50
2021/12/09 08:38:49;;;;;;;9.67;5.57;;;10.40;59.50;;;;;;4973320;28;20738;-50
2021/12/09 08:41:18;;;;;;;8.67;5.43;;;10.40;59.50;;;;;;4972775;28;20187;-50
2021/12/09 08:43:44;;;;;;;8.83;5.50;;;10.40;59.60;;;;;;4971545;28;20195;-51
2021/12/09 08:46:10;;;;;;;7.33;5.20;;;10.40;59.70;;;;;;4971590;28;20797;-51
2021/12/09 08:48:36;;;;;;;8.50;6.90;;;10.40;59.80;;;;;;4971764;28;20502;-51
2021/12/09 08:51:01;;;;;;;10.67;6.20;;;10.40;59.80;;;;;;4972396;28;20245;-51
2021/12/09 08:53:27;;;;;;;13.00;7.90;;;10.40;59.60;;;;;;4973173;28;20195;-53
2021/12/09 08:55:54;;;;;;;10.37;6.97;;;10.40;59.70;;;;;;4971686;28;20307;-50
2021/12/09 08:58:20;;;;;;;16.30;7.30;;;10.50;59.80;;;;;;4972978;28;20219;-52
2021/12/09 09:00:46;;;;;;;7.40;5.67;;;10.50;59.80;;;;;;4972179;28;20431;-51
2021/12/09 09:03:13;;;;;;;7.10;6.13;;;10.50;59.80;;;;;;4972360;28;20438;-50
2021/12/09 09:05:40;;;;;;;6.50;4.90;;;10.50;59.70;;;;;;4972326;28;20442;-51
2021/12/09 09:08:06;;;;;;;9.03;5.00;;;10.50;59.80;;;;;;4964112;28;20765;-53
2021/12/09 09:10:38;;;;;;;15.03;6.07;;;10.60;59.70;;;;;;4965464;28;20463;-51
2021/12/09 09:13:04;;;;;;;9.63;7.30;;;10.60;59.60;;;;;;4966953;28;20443;-52
2021/12/09 09:15:31;;;;;;;6.70;5.50;;;10.60;59.60;;;;;;4961675;28;20542;-51
2021/12/09 09:17:58;;;;;;;9.07;5.77;;;10.60;59.50;;;;;;4963662;28;20485;-52
2021/12/09 09:20:26;;;;;;;7.13;6.20;;;10.60;59.60;;;;;;4968749;28;20439;-50
2021/12/09 09:22:52;;;;;;;7.60;5.30;;;10.70;59.80;;;;;;4957521;28;20475;-51
2021/12/09 09:25:22;;;;;;;15.13;7.90;;;10.70;59.20;;;;;;4961015;28;20998;-53
2021/12/09 09:27:48;;;;;;;8.60;7.30;;;10.80;59.20;;;;;;4969734;28;20200;-50
2021/12/09 09:30:18;;;;;;;10.50;6.47;;;10.80;59.10;;;;;;4969127;28;20525;-51
2021/12/09 09:32:48;;;;;;;6.20;4.97;;;10.80;59.00;;;;;;4970551;28;20450;-51
2021/12/09 09:35:14;;;;;;;8.67;4.70;;;10.50;58.90;;;;;;4965453;28;20469;-54
2021/12/09 09:37:40;;;;;;;6.90;4.27;;;10.50;59.30;;;;;;4969956;28;20525;-52
2021/12/09 09:40:09;;;;;;;4.73;4.10;;;10.60;59.10;;;;;;4963049;28;20475;-51
2021/12/09 09:45:09;;;;;;;6.97;4.40;;;10.80;58.40;;;;;;4967608;28;20438;-52
2021/12/09 09:47:35;;;;;;;11.60;4.40;;;10.90;58.30;;;;;;4968937;28;20464;-52
2021/12/09 09:50:02;;;;;;;6.37;4.10;;;10.90;57.90;;;;;;4966106;28;20957;-50
2021/12/09 09:52:28;;;;;;;9.00;4.53;;;10.80;57.60;;;;;;4971114;28;20438;-50
2021/12/09 09:54:55;;;;;;;4.83;4.00;;;10.70;57.50;;;;;;4967421;28;20474;-50
2021/12/09 09:57:22;;;;;;;5.30;3.90;;;10.60;57.50;;;;;;4962651;28;20482;-50
2021/12/09 09:59:49;;;;;;;8.50;3.77;;;10.60;57.70;;;;;;4967505;28;20442;-53
2021/12/09 10:02:15;;;;;;;7.10;4.10;;;10.80;57.70;;;;;;4971881;28;20431;-52
2021/12/09 10:07:18;;;;;;;6.60;3.90;;;10.70;57.40;;;;;;4966705;28;20440;-54
2021/12/09 10:09:46;;;;;;;6.40;3.90;;;10.60;57.40;;;;;;4959562;28;20451;-53
2021/12/09 10:12:12;;;;;;;5.73;4.67;;;10.80;57.40;;;;;;4970982;28;20845;-53
2021/12/09 10:14:38;;;;;;;10.17;4.60;;;10.70;57.50;;;;;;4970137;28;20446;-50
2021/12/09 10:17:05;;;;;;;7.87;4.40;;;10.70;57.60;;;;;;4967882;28;20953;-50
2021/12/09 10:19:33;;;;;;;6.43;4.67;;;10.90;57.50;;;;;;4971625;28;20442;-54
2021/12/09 10:22:12;;;;;;;5.93;4.17;;;10.80;57.40;;;;;;4972381;28;20927;-54
2021/12/09 10:24:40;;;;;;;7.77;4.47;;;11.00;57.20;;;;;;4976577;28;20493;-54
2021/12/09 10:27:17;;;;;;;6.73;4.10;;;10.90;57.20;;;;;;4967330;28;20438;-52
2021/12/09 10:29:45;;;;;;;4.23;3.67;;;10.90;57.40;;;;;;4961444;28;20450;-51
2021/12/09 10:32:20;;;;;;;7.17;3.50;;;11.00;57.50;;;;;;4967292;28;20434;-53
2021/12/09 10:34:48;;;;;;;4.73;3.80;;;11.00;57.40;;;;;;4960662;28;20450;-54
2021/12/09 10:37:21;;;;;;;4.70;3.57;;;11.00;57.30;;;;;;4957929;28;20483;-55
2021/12/09 10:39:50;;;;;;;4.57;3.90;;;11.00;57.30;;;;;;4966142;28;20483;-51
2021/12/09 10:42:23;;;;;;;8.47;3.57;;;11.10;57.30;;;;;;4968637;28;20450;-52
2021/12/09 10:44:55;;;;;;;6.60;4.27;;;11.10;56.80;;;;;;4970958;28;20772;-51
2021/12/09 10:50:44;;;;;;;6.43;3.97;;;10.90;56.80;;;;;;4970496;28;20827;-52
2021/12/09 10:56:03;;;;;;;7.20;5.37;;;11.00;57.60;;;;;;4970166;28;20485;-54
2021/12/09 10:58:34;;;;;;;5.87;4.40;;;10.90;57.60;;;;;;4967428;28;20485;-53
2021/12/09 11:01:02;;;;;;;6.53;4.53;;;11.10;57.70;;;;;;4965034;28;20808;-53
2021/12/09 11:03:37;;;;;;;6.27;4.20;;;11.10;57.50;;;;;;4968184;28;20804;-54
2021/12/09 11:06:09;;;;;;;4.90;4.17;;;11.20;57.50;;;;;;4964886;28;20447;-54
2021/12/09 11:08:45;;;;;;;9.03;6.50;;;11.30;57.50;;;;;;4966713;28;20923;-55
2021/12/09 11:11:15;;;;;;;6.23;5.60;;;11.40;57.50;;;;;;4969552;28;20447;-54
2021/12/09 11:13:52;;;;;;;10.43;4.90;;;11.40;57.60;;;;;;4969361;28;20477;-54
2021/12/09 11:16:27;;;;;;;10.67;4.57;;;11.40;57.90;;;;;;4969003;28;20474;-53
2021/12/09 11:19:09;;;;;;;7.10;5.00;;;11.40;58.20;;;;;;4971226;28;20486;-54
2021/12/09 11:21:40;;;;;;;8.27;5.17;;;11.50;58.10;;;;;;4967562;28;20514;-55
2021/12/09 11:24:11;;;;;;;8.60;6.00;;;11.30;58.10;;;;;;4965344;28;20443;-54
2021/12/09 11:29:18;;;;;;;12.20;6.83;;;11.30;58.60;;;;;;4969396;28;20549;-53
2021/12/09 11:32:00;;;;;;;6.20;5.03;;;11.20;58.50;;;;;;4970183;28;21136;-54
2021/12/09 11:34:32;;;;;;;6.47;5.13;;;11.20;58.20;;;;;;4965085;28;20509;-52
2021/12/09 11:37:05;;;;;;;8.57;5.50;;;11.30;58.60;;;;;;4961007;28;20438;-54
2021/12/09 11:39:33;;;;;;;5.80;5.20;;;11.30;58.70;;;;;;4961339;28;20501;-52
2021/12/09 11:42:19;;;;;;;7.80;6.10;;;11.40;58.70;;;;;;4955081;28;20443;-54
2021/12/09 11:44:46;;;;;;;6.83;5.87;;;11.40;58.70;;;;;;4960995;28;20434;-54
2021/12/09 11:47:13;;;;;;;10.50;6.17;;;11.50;58.40;;;;;;4967749;28;20817;-53
2021/12/09 11:49:39;;;;;;;8.33;5.50;;;11.50;58.20;;;;;;4972397;28;20445;-53
2021/12/09 11:52:05;;;;;;;10.30;5.90;;;11.40;58.50;;;;;;4971660;28;20485;-53
2021/12/09 11:54:32;;;;;;;7.40;6.10;;;11.40;58.80;;;;;;4961344;28;20593;-54
2021/12/09 11:57:12;;;;;;;10.30;6.17;;;11.40;58.90;;;;;;4971501;28;20571;-53
2021/12/09 12:06:40;;;;;;;11.43;5.97;;;11.50;58.70;;;;;;4967293;28;20478;-53
2021/12/09 12:11:26;;;;;;;8.80;6.77;;;11.50;58.70;;;;;;4966671;28;20438;-51
2021/12/09 12:14:18;;;;;;;10.33;6.23;;;11.60;58.70;;;;;;4967326;28;20501;-53
2021/12/09 12:17:04;;;;;;;6.37;5.70;;;11.60;58.90;;;;;;4969695;28;20439;-54
2021/12/09 12:20:00;;;;;;;7.07;5.93;;;11.70;58.80;;;;;;4968042;28;20936;-53
2021/12/09 12:28:36;;;;;;;14.73;7.40;;;11.80;58.40;;;;;;4968913;28;20455;-53
2021/12/09 12:42:13;;;;;;;18.80;12.47;;;11.40;59.50;;;;;;4947653;28;20457;-50
2021/12/09 12:48:14;;;;;;;13.83;9.80;;;11.40;59.50;;;;;;4922625;29;20874;-50
2021/12/09 12:50:34;;;;;;;13.37;10.20;;;11.40;59.50;;;;;;4962106;28;20422;-50
2021/12/09 12:53:31;;;;;;;12.17;9.90;;;11.30;59.50;;;;;;4965123;28;20961;-52
2021/12/09 12:56:41;;;;;;;14.40;9.97;;;11.40;59.60;;;;;;4967350;28;20818;-53
2021/12/09 12:59:12;;;;;;;12.30;8.90;;;11.50;59.50;;;;;;4943309;28;20571;-53
2021/12/09 13:01:45;;;;;;;13.53;8.63;;;11.50;59.60;;;;;;4942450;28;20461;-50
2021/12/09 13:04:29;;;;;;;10.00;8.87;;;11.60;59.50;;;;;;4960821;28;20434;-53
2021/12/09 13:07:00;;;;;;;13.40;8.83;;;11.70;59.40;;;;;;4964424;28;21096;-50
2021/12/09 13:09:41;;;;;;;10.80;7.80;;;11.80;59.50;;;;;;4965816;28;20438;-52
2021/12/09 13:12:10;;;;;;;15.10;8.67;;;11.60;59.20;;;;;;4964936;28;20446;-54
2021/12/09 13:15:20;;;;;;;10.70;6.90;;;11.70;60.20;;;;;;4966325;28;20461;-53
2021/12/09 13:17:57;;;;;;;9.40;6.97;;;11.70;58.80;;;;;;4963074;28;20682;-51
2021/12/09 13:20:35;;;;;;;8.47;5.90;;;11.60;58.70;;;;;;4963245;28;20442;-53
2021/12/09 13:23:20;;;;;;;10.17;4.60;;;11.50;58.50;;;;;;4968564;28;20812;-50
2021/12/09 13:26:24;;;;;;;8.70;4.47;;;11.50;57.70;;;;;;4966097;28;20538;-51
2021/12/09 13:29:22;;;;;;;10.30;7.80;;;11.60;57.70;;;;;;4965613;28;20477;-51
2021/12/09 13:32:02;;;;;;;5.80;4.43;;;11.80;57.50;;;;;;4971455;28;20459;-51
2021/12/09 13:34:39;;;;;;;8.90;4.50;;;11.90;56.50;;;;;;4968937;28;21117;-53
2021/12/09 13:38:14;;;;;;;10.57;4.17;;;11.80;56.00;;;;;;4971126;28;20493;-55
2021/12/09 13:48:15;;;;;;;4.60;3.93;;;11.70;56.00;;;;;;4965602;28;20474;-51